Time;durP1;ratioP1;P1;durP2;ratioP2;P2;SDS_P1;SDS_P2;PMS_P1;PMS_P2;Temp;Humidity;BMP_temperature;BMP_pressure;BME280_temperature;BME280_humidity;BME280_pressure;Samples;Min_cycle;Max_cycle;Signal;HPM_P1;HPM_P2
2022/05/13 00:00:38;;;;;;;11.63;10.80;;;;;;;9.50;97.26;101510.94;5031211;28;20428;-45
2022/05/13 00:03:06;;;;;;;11.03;10.13;;;;;;;9.48;97.76;101520.13;5031408;28;20458;-46
2022/05/13 00:05:34;;;;;;;11.93;10.77;;;;;;;9.45;97.57;101506.16;5031192;28;21004;-44
2022/05/13 00:08:03;;;;;;;12.97;10.67;;;;;;;9.44;97.90;101503.66;5030722;28;20452;-53
2022/05/13 00:10:31;;;;;;;10.83;9.90;;;;;;;9.43;97.81;101502.84;5030883;28;20499;-45
2022/05/13 00:12:58;;;;;;;12.00;11.20;;;;;;;9.42;98.00;101501.16;5031098;28;20436;-46
2022/05/13 00:15:29;;;;;;;11.47;10.33;;;;;;;9.43;97.84;101500.19;5030853;28;20901;-44
2022/05/13 00:17:56;;;;;;;18.73;12.20;;;;;;;9.41;97.89;101494.19;5033262;28;20456;-45
2022/05/13 00:20:25;;;;;;;11.33;10.30;;;;;;;9.42;97.96;101490.53;5034647;28;20535;-44
2022/05/13 00:22:54;;;;;;;12.53;11.40;;;;;;;9.43;98.07;101478.06;5034673;28;20443;-46
2022/05/13 00:25:27;;;;;;;12.70;11.50;;;;;;;9.41;98.12;101486.19;5034367;28;20440;-47
2022/05/13 00:27:56;;;;;;;12.67;11.40;;;;;;;9.42;98.00;101489.69;5034143;28;20460;-45
2022/05/13 00:30:24;;;;;;;11.73;10.77;;;;;;;9.43;98.08;101496.69;5034521;28;20511;-47
2022/05/13 00:32:52;;;;;;;13.13;10.20;;;;;;;9.42;98.14;101485.19;5034366;28;20439;-46
2022/05/13 00:35:21;;;;;;;13.03;11.20;;;;;;;9.46;98.15;101485.69;5034440;28;20432;-44
2022/05/13 00:37:50;;;;;;;11.27;10.30;;;;;;;9.47;98.20;101494.50;5033941;28;20444;-44
2022/05/13 00:40:20;;;;;;;15.37;11.37;;;;;;;9.49;97.99;101490.69;5034037;28;20429;-48
2022/05/13 00:42:50;;;;;;;11.03;10.10;;;;;;;9.53;98.15;101493.84;5034566;28;20432;-47
2022/05/13 00:45:19;;;;;;;15.67;11.53;;;;;;;9.56;98.12;101488.16;5034445;28;20436;-49
2022/05/13 00:47:46;;;;;;;10.13;9.30;;;;;;;9.57;98.25;101487.13;5027723;28;20453;-46
2022/05/13 00:50:15;;;;;;;12.40;11.27;;;;;;;9.60;98.40;101487.63;5034024;28;20997;-45
2022/05/13 00:52:49;;;;;;;11.03;9.73;;;;;;;9.63;98.15;101483.78;5034301;28;20425;-44
2022/05/13 00:55:23;;;;;;;10.93;10.10;;;;;;;9.63;98.18;101476.63;5034240;28;20432;-47
2022/05/13 00:57:53;;;;;;;12.23;11.27;;;;;;;9.65;98.15;101479.13;5033612;28;20460;-46
2022/05/13 01:00:21;;;;;;;13.37;12.20;;;;;;;9.65;98.29;101477.28;5033828;28;20425;-45
2022/05/13 01:02:49;;;;;;;11.27;10.23;;;;;;;9.65;98.01;101481.78;5033807;28;20813;-44
2022/05/13 01:05:19;;;;;;;12.27;11.13;;;;;;;9.67;98.36;101477.13;5033935;28;20842;-46
2022/05/13 01:07:47;;;;;;;12.00;11.03;;;;;;;9.67;98.16;101471.81;5033414;28;20961;-46
2022/05/13 01:10:19;;;;;;;11.20;10.07;;;;;;;9.67;98.34;101474.47;5033705;28;20472;-47
2022/05/13 01:12:51;;;;;;;12.20;10.93;;;;;;;9.68;98.26;101474.28;5033858;28;21014;-46
2022/05/13 01:15:24;;;;;;;12.10;10.80;;;;;;;9.70;98.20;101474.97;5033720;28;20814;-47
2022/05/13 01:18:07;;;;;;;12.97;11.33;;;;;;;9.71;98.30;101467.78;5033224;28;20537;-49
2022/05/13 01:20:46;;;;;;;12.00;10.60;;;;;;;9.70;98.20;101472.28;5033571;28;20428;-46
2022/05/13 01:23:19;;;;;;;12.83;10.53;;;;;;;9.70;98.26;101479.44;5033546;28;20440;-44
2022/05/13 01:25:50;;;;;;;11.17;10.37;;;;;;;9.71;98.19;101468.59;5032951;28;20448;-46
2022/05/13 01:28:20;;;;;;;12.97;10.37;;;;;;;9.70;98.23;101468.78;5032833;28;20435;-48
2022/05/13 01:30:51;;;;;;;13.43;12.00;;;;;;;9.71;98.19;101467.78;5033481;28;20456;-45
2022/05/13 01:33:20;;;;;;;12.00;11.00;;;;;;;9.71;98.23;101467.78;5033541;28;20428;-47
2022/05/13 01:35:50;;;;;;;11.83;10.83;;;;;;;9.72;98.11;101474.78;5032896;28;20475;-45
2022/05/13 01:38:23;;;;;;;12.10;11.10;;;;;;;9.72;98.21;101480.09;5033182;28;20420;-46
2022/05/13 01:40:51;;;;;;;13.80;11.30;;;;;;;9.71;98.16;101476.59;5033075;28;20504;-47
2022/05/13 01:43:19;;;;;;;11.97;10.70;;;;;;;9.69;98.03;101470.63;5033333;28;20435;-44
2022/05/13 01:45:47;;;;;;;12.27;11.10;;;;;;;9.69;98.12;101472.44;5032718;28;20973;-44
2022/05/13 01:48:15;;;;;;;12.30;11.20;;;;;;;9.69;98.03;101467.97;5033171;28;20432;-44
2022/05/13 01:50:43;;;;;;;11.53;10.33;;;;;;;9.70;98.11;101466.97;5032997;28;20965;-45
2022/05/13 01:53:11;;;;;;;13.33;12.20;;;;;;;9.70;98.04;101464.31;5033209;28;20427;-46
2022/05/13 01:55:42;;;;;;;12.40;11.13;;;;;;;9.71;98.07;101451.78;5033048;28;20953;-46
2022/05/13 01:58:11;;;;;;;12.50;11.30;;;;;;;9.72;98.02;101454.28;5032413;28;20542;-45
2022/05/13 02:00:39;;;;;;;12.17;11.03;;;;;;;9.73;97.98;101453.31;5032599;28;20424;-45
2022/05/13 02:05:52;;;;;;;11.43;10.63;;;;;;;9.75;97.66;101445.97;5032356;28;20471;-46
2022/05/13 02:08:20;;;;;;;15.90;10.50;;;;;;;9.77;97.68;101451.09;5032961;28;20531;-46
2022/05/13 02:10:49;;;;;;;11.67;10.57;;;;;;;9.77;97.80;101435.13;5032481;28;20476;-45
2022/05/13 02:13:17;;;;;;;11.43;10.70;;;;;;;9.79;97.81;101439.28;5032690;28;20436;-44
2022/05/13 02:15:45;;;;;;;12.60;11.37;;;;;;;9.81;97.93;101436.44;5032205;28;20645;-47
2022/05/13 02:18:12;;;;;;;11.83;10.60;;;;;;;9.83;97.78;101429.09;5032555;28;20436;-46
2022/05/13 02:20:41;;;;;;;11.97;10.87;;;;;;;9.84;97.72;101433.44;5032359;28;20431;-49
2022/05/13 02:23:08;;;;;;;14.67;11.00;;;;;;;9.86;97.88;101429.56;5032547;28;20442;-44
2022/05/13 02:25:37;;;;;;;11.10;10.17;;;;;;;9.89;97.74;101436.38;5032245;28;20436;-44
2022/05/13 02:28:06;;;;;;;11.80;10.97;;;;;;;9.90;97.57;101432.72;5031837;28;20828;-46
2022/05/13 02:30:34;;;;;;;12.00;10.90;;;;;;;9.92;97.80;101426.22;5032064;28;21099;-45
2022/05/13 02:33:02;;;;;;;13.30;12.00;;;;;;;9.95;97.75;101427.69;5032437;28;20960;-44
2022/05/13 02:35:30;;;;;;;13.00;11.80;;;;;;;9.95;97.53;101433.03;5032307;28;20771;-47
2022/05/13 02:37:57;;;;;;;13.10;11.90;;;;;;;9.97;97.61;101423.84;5031728;28;20474;-48
2022/05/13 02:41:11;;;;;;;11.60;10.50;;;;;;;9.99;97.54;101421.00;5031790;28;20428;-48
2022/05/13 02:43:14;;;;;;;11.97;10.87;;;;;;;10.00;97.53;101412.03;5032196;28;20436;-49
2022/05/13 02:45:42;;;;;;;10.50;9.70;;;;;;;10.02;97.46;101418.84;5031823;28;20451;-50
2022/05/13 02:48:10;;;;;;;12.07;10.97;;;;;;;10.03;97.65;101409.81;5031504;28;20464;-46
2022/05/13 02:50:38;;;;;;;11.00;10.30;;;;;;;10.07;97.46;101406.78;5031793;28;20432;-46
2022/05/13 02:53:07;;;;;;;11.40;10.50;;;;;;;10.09;97.32;101415.47;5031947;28;20468;-46
2022/05/13 02:55:35;;;;;;;11.53;10.03;;;;;;;10.09;97.31;101405.63;5031634;28;21079;-48
2022/05/13 02:58:02;;;;;;;13.17;10.90;;;;;;;10.12;97.25;101399.13;5031507;28;20464;-49
2022/05/13 03:00:32;;;;;;;11.20;10.17;;;;;;;10.11;97.14;101390.28;5031837;28;20432;-47
2022/05/13 03:02:59;;;;;;;11.10;10.10;;;;;;;10.13;97.27;101388.28;5032097;28;20435;-47
2022/05/13 03:05:28;;;;;;;11.00;10.00;;;;;;;10.15;97.10;101380.13;5031664;28;20858;-50
2022/05/13 03:07:57;;;;;;;11.47;10.57;;;;;;;10.15;97.04;101378.31;5031078;28;20474;-47
2022/05/13 03:10:25;;;;;;;10.50;9.40;;;;;;;10.17;97.17;101367.44;5031702;28;20475;-46
2022/05/13 03:12:52;;;;;;;11.40;10.50;;;;;;;10.18;97.04;101369.13;5031697;28;20472;-45
2022/05/13 03:15:20;;;;;;;11.20;10.03;;;;;;;10.20;96.88;101361.78;5031853;28;20435;-46
2022/05/13 03:17:50;;;;;;;11.33;10.03;;;;;;;10.23;97.05;101356.06;5031308;28;20470;-49
2022/05/13 03:20:20;;;;;;;13.90;10.90;;;;;;;10.25;97.10;101344.22;5031335;28;20439;-50
2022/05/13 03:22:52;;;;;;;12.03;10.83;;;;;;;10.26;96.94;101350.38;5031816;28;20436;-48
2022/05/13 03:25:21;;;;;;;11.13;10.43;;;;;;;10.27;97.09;101341.41;5031722;28;20450;-47
2022/05/13 03:27:49;;;;;;;11.93;10.83;;;;;;;10.29;96.87;101342.88;5031102;28;20479;-45
2022/05/13 03:30:21;;;;;;;13.07;11.60;;;;;;;10.32;96.91;101344.34;5029504;28;20552;-44
2022/05/13 03:32:50;;;;;;;11.80;10.87;;;;;;;10.33;97.00;101348.69;5027507;28;20476;-49
2022/05/13 03:35:20;;;;;;;15.23;11.17;;;;;;;10.33;97.01;101344.19;5030042;28;20424;-49
2022/05/13 03:37:48;;;;;;;11.97;11.17;;;;;;;10.34;96.52;101334.31;5020969;28;20469;-45
2022/05/13 03:40:17;;;;;;;11.93;10.97;;;;;;;10.37;97.02;101345.44;5019423;28;20814;-45
2022/05/13 03:42:45;;;;;;;11.83;10.60;;;;;;;10.39;96.97;101342.63;5027729;28;20432;-45
2022/05/13 03:45:15;;;;;;;11.30;10.10;;;;;;;10.40;96.75;101339.75;5031050;28;20862;-47
2022/05/13 03:47:44;;;;;;;11.10;10.10;;;;;;;10.42;96.91;101334.25;5030505;28;20472;-49
2022/05/13 03:50:13;;;;;;;13.00;10.10;;;;;;;10.44;96.76;101340.22;5031292;28;20432;-48
2022/05/13 03:52:42;;;;;;;13.73;11.37;;;;;;;10.44;96.71;101338.41;5033347;28;20472;-46
2022/05/13 03:55:11;;;;;;;12.30;11.07;;;;;;;10.46;96.74;101330.19;5035294;28;20435;-46
2022/05/13 03:57:38;;;;;;;11.90;11.10;;;;;;;10.47;96.54;101338.03;5034563;28;20470;-47
2022/05/13 04:00:08;;;;;;;12.60;11.23;;;;;;;10.48;96.39;101337.00;5035078;28;20431;-46
2022/05/13 04:02:36;;;;;;;12.83;11.63;;;;;;;10.49;96.35;101341.34;5034907;28;20436;-45
2022/05/13 04:10:37;;;;;;;11.53;10.53;;;;;;;10.57;96.18;101331.63;5034577;28;20423;-44
2022/05/13 04:16:06;;;;;;;11.93;11.00;;;;;;;10.60;96.29;101339.25;5034187;28;21000;-47
2022/05/13 04:18:36;;;;;;;13.57;12.20;;;;;;;10.63;96.09;101333.56;5034716;28;20450;-49
2022/05/13 04:21:06;;;;;;;13.37;11.47;;;;;;;10.64;96.29;101337.84;5034859;28;20432;-50
2022/05/13 04:23:37;;;;;;;12.10;10.70;;;;;;;10.68;96.14;101333.81;5034840;28;20431;-45
2022/05/13 04:26:05;;;;;;;14.70;11.70;;;;;;;10.70;96.12;101337.13;5034247;28;20821;-46
2022/05/13 04:28:33;;;;;;;12.13;11.10;;;;;;;10.74;96.16;101338.44;5034645;28;20451;-44
2022/05/13 04:31:01;;;;;;;14.80;13.30;;;;;;;10.75;96.01;101340.91;5034366;28;20802;-47
2022/05/13 04:33:35;;;;;;;13.93;12.73;;;;;;;10.79;96.10;101346.69;5034534;28;20562;-48
2022/05/13 04:36:03;;;;;;;17.90;13.40;;;;;;;10.83;96.01;101332.00;5034101;28;20478;-44
2022/05/13 04:38:31;;;;;;;14.10;12.70;;;;;;;10.86;96.06;101323.63;5034701;28;20447;-48
2022/05/13 04:42:49;;;;;;;14.17;12.80;;;;;;;10.87;96.36;101328.75;5034206;28;20439;-46
2022/05/13 04:43:47;;;;;;;15.53;13.50;;;;;;;10.91;96.22;101335.41;5034043;28;20436;-45
2022/05/13 04:46:15;;;;;;;17.53;14.40;;;;;;;10.97;96.30;101336.50;5034032;28;20460;-45
2022/05/13 04:48:43;;;;;;;14.37;13.07;;;;;;;11.00;96.11;101350.31;5034052;28;20443;-48
2022/05/13 04:51:11;;;;;;;15.60;14.20;;;;;;;11.07;96.76;101340.56;5033887;28;20436;-46
2022/05/13 04:53:40;;;;;;;15.33;13.93;;;;;;;11.16;96.52;101338.63;5034172;28;20478;-46
2022/05/13 04:56:10;;;;;;;15.63;14.13;;;;;;;11.25;96.72;101350.84;5033501;28;20459;-52
2022/05/13 04:58:38;;;;;;;15.37;13.80;;;;;;;11.35;96.77;101340.69;5034187;28;20434;-47
2022/05/13 05:01:08;;;;;;;16.20;14.60;;;;;;;11.38;96.00;101342.97;5033907;28;20439;-51
2022/05/13 05:03:37;;;;;;;23.70;14.97;;;;;;;11.41;95.39;101344.47;5034010;28;20444;-50
2022/05/13 05:06:05;;;;;;;21.87;14.47;;;;;;;11.45;95.86;101351.06;5033411;28;20458;-48
2022/05/13 05:08:33;;;;;;;24.20;16.13;;;;;;;11.48;95.66;101346.19;5033718;28;20482;-45
2022/05/13 05:11:02;;;;;;;16.50;15.07;;;;;;;11.52;95.55;101352.81;5033629;28;20424;-52
2022/05/13 05:13:34;;;;;;;16.53;15.30;;;;;;;11.59;95.65;101351.03;5033768;28;20471;-48
2022/05/13 05:16:02;;;;;;;15.83;14.37;;;;;;;11.73;95.60;101354.75;5033272;28;20482;-48
2022/05/13 05:18:31;;;;;;;16.87;14.83;;;;;;;11.89;95.43;101346.47;5033746;28;20432;-48
2022/05/13 05:20:59;;;;;;;15.93;14.30;;;;;;;12.09;95.31;101335.97;5033423;28;20523;-46
2022/05/13 05:23:30;;;;;;;14.80;13.27;;;;;;;12.30;94.95;101340.47;5033491;28;20466;-45
2022/05/13 05:25:58;;;;;;;15.07;13.80;;;;;;;12.43;93.30;101335.22;5033274;28;20457;-46
2022/05/13 05:28:27;;;;;;;15.30;13.83;;;;;;;12.43;91.57;101338.72;5033738;28;20458;-46
2022/05/13 05:31:00;;;;;;;15.57;14.30;;;;;;;12.38;90.35;101334.97;5033332;28;20420;-48
2022/05/13 05:33:28;;;;;;;14.40;13.30;;;;;;;12.41;90.74;101343.44;5033538;28;20472;-47
2022/05/13 05:35:56;;;;;;;14.93;13.50;;;;;;;12.37;90.24;101338.66;5032701;28;20770;-47
2022/05/13 05:38:24;;;;;;;15.63;13.93;;;;;;;12.35;90.09;101336.19;5033261;28;20444;-47
2022/05/13 05:40:52;;;;;;;16.00;14.13;;;;;;;12.30;90.39;101346.66;5033046;28;20428;-46
2022/05/13 05:43:21;;;;;;;16.10;13.70;;;;;;;12.30;90.45;101345.81;5033310;28;20432;-47
2022/05/13 05:45:49;;;;;;;15.87;14.23;;;;;;;12.27;90.55;101344.38;5032592;28;20452;-49
2022/05/13 05:48:22;;;;;;;15.03;13.73;;;;;;;12.27;90.77;101344.38;5032774;28;20432;-49
2022/05/13 05:50:51;;;;;;;15.50;14.00;;;;;;;12.31;90.73;101340.25;5033028;28;20432;-48
2022/05/13 05:57:13;;;;;;;15.30;14.10;;;;;;;12.31;90.62;101356.31;5033038;28;20472;-51
2022/05/13 05:58:56;;;;;;;18.53;13.17;;;;;;;12.39;90.63;101345.50;5032684;28;20769;-45
2022/05/13 06:01:24;;;;;;;14.03;12.83;;;;;;;12.43;90.95;101346.75;5032793;28;20470;-47
2022/05/13 06:03:53;;;;;;;14.03;12.70;;;;;;;12.45;90.64;101352.75;5032920;28;20428;-48
2022/05/13 06:06:21;;;;;;;13.90;12.63;;;;;;;12.49;90.89;101347.81;5032257;28;20953;-47
2022/05/13 06:08:50;;;;;;;15.20;13.73;;;;;;;12.51;90.40;101346.63;5032640;28;20432;-49
2022/05/13 06:11:17;;;;;;;16.27;13.47;;;;;;;12.57;90.17;101345.81;5032231;28;20440;-48
2022/05/13 06:13:45;;;;;;;13.10;12.03;;;;;;;12.61;90.22;101348.94;5032888;28;20475;-46
2022/05/13 06:16:12;;;;;;;15.90;13.67;;;;;;;12.66;89.93;101335.81;5031745;28;20466;-48
2022/05/13 06:18:40;;;;;;;17.43;13.50;;;;;;;12.72;89.83;101329.69;5032597;28;20436;-49
2022/05/13 06:21:09;;;;;;;12.67;11.53;;;;;;;12.76;89.76;101330.91;5032264;28;20451;-49
2022/05/13 06:23:37;;;;;;;17.93;12.30;;;;;;;12.84;89.79;101335.31;5032270;28;20432;-46
2022/05/13 06:26:04;;;;;;;14.70;12.87;;;;;;;12.87;89.40;101334.91;5031841;28;20456;-45
2022/05/13 06:28:32;;;;;;;12.60;11.63;;;;;;;12.83;88.71;101331.81;5032554;28;20803;-50
2022/05/13 06:31:00;;;;;;;12.60;11.30;;;;;;;12.82;88.72;101337.34;5032312;28;20432;-47
2022/05/13 06:33:28;;;;;;;13.17;11.97;;;;;;;12.72;88.30;101340.38;5032297;28;20472;-47
2022/05/13 06:35:55;;;;;;;14.10;12.97;;;;;;;12.60;88.99;101345.44;5031790;28;20456;-44
2022/05/13 06:38:25;;;;;;;14.90;12.83;;;;;;;12.58;89.63;101341.28;5032157;28;20802;-47
2022/05/13 06:40:54;;;;;;;14.03;12.80;;;;;;;12.61;90.27;101351.59;5032113;28;20432;-47
2022/05/13 06:43:23;;;;;;;13.20;12.00;;;;;;;12.66;90.69;101341.97;5032377;28;20801;-47
2022/05/13 06:45:52;;;;;;;13.23;12.00;;;;;;;12.80;91.16;101344.75;5031529;28;20453;-50
2022/05/13 06:48:20;;;;;;;12.97;11.87;;;;;;;12.98;90.78;101345.06;5032185;28;20922;-47
2022/05/13 06:50:48;;;;;;;13.17;11.87;;;;;;;13.12;90.55;101349.47;5031717;28;20462;-50
2022/05/13 06:53:17;;;;;;;14.30;12.80;;;;;;;13.18;89.37;101337.97;5032062;28;21061;-44
2022/05/13 06:55:46;;;;;;;14.43;12.57;;;;;;;13.26;89.15;101343.19;5031848;28;20478;-46
2022/05/13 06:58:15;;;;;;;14.90;12.37;;;;;;;13.37;89.18;101352.50;5032026;28;20797;-46
2022/05/13 07:00:44;;;;;;;14.13;11.93;;;;;;;13.43;89.72;101351.69;5031781;28;20440;-46
2022/05/13 07:03:12;;;;;;;17.40;13.50;;;;;;;13.35;89.87;101355.34;5031749;28;20432;-48
2022/05/13 07:05:40;;;;;;;15.30;13.77;;;;;;;13.26;90.46;101353.91;5031956;28;20776;-47
2022/05/13 07:08:09;;;;;;;14.17;13.07;;;;;;;13.15;90.65;101351.78;5031464;28;20478;-51
2022/05/13 07:10:39;;;;;;;15.40;14.20;;;;;;;13.09;91.53;101353.41;5031640;28;20813;-47
2022/05/13 07:13:09;;;;;;;15.87;14.33;;;;;;;13.03;92.79;101361.34;5031770;28;20440;-47
2022/05/13 07:15:37;;;;;;;21.10;12.73;;;;;;;13.00;93.92;101364.41;5031461;28;20432;-47
2022/05/13 07:18:05;;;;;;;19.20;14.57;;;;;;;12.93;94.41;101368.94;5031149;28;20470;-47
2022/05/13 07:20:32;;;;;;;13.67;12.57;;;;;;;12.82;94.39;101385.50;5031652;28;20417;-49
2022/05/13 07:23:00;;;;;;;31.70;13.37;;;;;;;12.36;93.20;101380.66;5031700;28;20801;-47
2022/05/13 07:25:31;;;;;;;21.33;9.03;;;;;;;12.00;91.79;101378.06;5031383;28;20933;-48
2022/05/13 07:27:59;;;;;;;12.87;7.50;;;;;;;11.93;92.73;101369.13;5033787;28;20474;-48
2022/05/13 07:30:28;;;;;;;7.43;6.23;;;;;;;11.92;92.97;101369.31;5035368;28;20588;-50
2022/05/13 07:32:56;;;;;;;6.63;5.97;;;;;;;12.02;93.74;101373.34;5036074;28;20436;-50
2022/05/13 07:35:23;;;;;;;6.67;6.27;;;;;;;12.11;93.14;101371.34;5035630;28;20483;-50
2022/05/13 07:37:51;;;;;;;6.60;6.03;;;;;;;12.20;92.71;101362.19;5034984;28;21012;-48
2022/05/13 07:43:04;;;;;;;7.40;6.67;;;;;;;12.50;93.06;101352.97;5035360;28;20928;-47
2022/05/13 07:45:35;;;;;;;7.97;7.20;;;;;;;12.74;93.49;101344.50;5035363;28;20455;-48
2022/05/13 07:48:03;;;;;;;8.23;7.63;;;;;;;13.08;92.94;101345.56;5034904;28;20510;-50
2022/05/13 07:50:31;;;;;;;8.60;7.97;;;;;;;13.46;93.20;101354.81;5035090;28;20439;-50
2022/05/13 07:52:59;;;;;;;8.53;7.93;;;;;;;13.90;93.05;101365.03;5035304;28;20436;-48
2022/05/13 07:55:28;;;;;;;11.67;8.13;;;;;;;14.26;90.64;101362.81;5035625;28;20471;-47
2022/05/13 07:57:56;;;;;;;13.43;8.30;;;;;;;14.70;88.72;101358.69;5034773;28;20463;-48
2022/05/13 08:00:25;;;;;;;13.73;8.83;;;;;;;15.31;87.70;101361.88;5035266;28;20789;-49
2022/05/13 08:02:56;;;;;;;9.60;8.27;;;;;;;15.81;85.93;101350.28;5035166;28;20440;-50
2022/05/13 08:05:24;;;;;;;11.80;9.50;;;;;;;16.15;81.72;101342.81;5035300;28;20424;-46
2022/05/13 08:08:03;;;;;;;10.00;9.00;;;;;;;16.55;79.94;101349.53;5034291;28;20456;-46
2022/05/13 08:10:31;;;;;;;10.13;8.97;;;;;;;16.77;74.42;101348.09;5034877;28;20439;-51
2022/05/13 08:12:58;;;;;;;11.50;9.47;;;;;;;17.04;74.01;101345.94;5034998;28;20502;-49
2022/05/13 08:15:26;;;;;;;12.40;10.77;;;;;;;17.37;72.32;101343.69;5034611;28;20471;-48
2022/05/13 08:17:55;;;;;;;11.80;9.10;;;;;;;17.78;71.04;101347.53;5034379;28;20846;-47
2022/05/13 08:20:24;;;;;;;11.13;9.20;;;;;;;18.52;72.06;101357.81;5034310;28;20431;-52
2022/05/13 08:22:52;;;;;;;13.20;9.37;;;;;;;18.65;66.88;101354.88;5034864;28;20539;-47
2022/05/13 08:25:19;;;;;;;14.47;10.07;;;;;;;18.81;68.18;101367.72;5034763;28;20797;-47
2022/05/13 08:27:47;;;;;;;13.37;10.00;;;;;;;18.66;66.20;101354.69;5034029;28;20461;-48
2022/05/13 08:30:16;;;;;;;13.73;11.03;;;;;;;18.42;66.92;101357.56;5034361;28;20432;-48
2022/05/13 08:32:44;;;;;;;12.50;10.97;;;;;;;18.01;66.42;101363.81;5034665;28;20436;-51
2022/05/13 08:35:14;;;;;;;19.60;11.80;;;;;;;17.77;69.43;101352.09;5034732;28;20471;-49
2022/05/13 08:37:47;;;;;;;15.20;12.20;;;;;;;17.49;69.40;101349.97;5033513;28;20548;-48
2022/05/13 08:40:23;;;;;;;13.27;11.90;;;;;;;17.14;70.67;101344.34;5034506;28;20424;-50
2022/05/13 08:42:51;;;;;;;13.53;12.00;;;;;;;16.86;71.88;101341.38;5034391;28;20458;-49
2022/05/13 08:45:20;;;;;;;18.27;12.73;;;;;;;16.59;73.55;101356.13;5034859;28;20440;-51
2022/05/13 08:47:54;;;;;;;12.80;11.60;;;;;;;16.24;74.63;101365.72;5033639;28;20460;-50
2022/05/13 08:50:27;;;;;;;16.70;12.17;;;;;;;16.28;76.17;101364.22;5034203;28;20415;-49
2022/05/13 08:53:11;;;;;;;19.33;12.80;;;;;;;16.44;77.69;101366.38;5034372;28;20833;-49
2022/05/13 08:55:43;;;;;;;14.70;11.30;;;;;;;16.50;74.87;101374.41;5033944;28;20485;-48
2022/05/13 08:58:16;;;;;;;15.57;10.00;;;;;;;16.36;72.55;101369.34;5033537;28;20837;-50
2022/05/13 09:00:46;;;;;;;16.53;10.43;;;;;;;16.40;72.72;101370.53;5033735;28;20466;-51
2022/05/13 09:03:27;;;;;;;14.83;9.50;;;;;;;16.36;72.57;101374.75;5034032;28;20432;-50
2022/05/13 09:06:02;;;;;;;13.03;10.03;;;;;;;16.32;71.61;101381.59;5033448;28;20813;-49
2022/05/13 09:08:39;;;;;;;12.00;9.20;;;;;;;16.59;71.98;101373.13;5034133;28;20459;-49
2022/05/13 09:11:14;;;;;;;15.53;9.80;;;;;;;16.69;70.98;101374.50;5033597;28;20448;-49
2022/05/13 09:13:51;;;;;;;21.37;10.40;;;;;;;17.04;70.47;101360.25;5034047;28;20796;-45
2022/05/13 09:16:26;;;;;;;15.30;9.57;;;;;;;17.48;69.30;101363.66;5033157;28;20590;-45
2022/05/13 09:18:59;;;;;;;10.40;8.60;;;;;;;18.01;67.75;101374.59;5033601;28;20436;-46
2022/05/13 09:21:28;;;;;;;15.83;9.47;;;;;;;18.27;65.71;101371.50;5033503;28;20451;-46
2022/05/13 09:23:55;;;;;;;13.60;8.90;;;;;;;18.36;64.13;101369.28;5033736;28;21089;-47
2022/05/13 09:26:26;;;;;;;13.30;8.70;;;;;;;18.47;63.56;101373.88;5032925;28;21006;-46
2022/05/13 09:29:04;;;;;;;10.53;7.97;;;;;;;18.46;60.15;101366.81;5033534;28;20793;-48
2022/05/13 09:31:34;;;;;;;12.63;7.70;;;;;;;18.26;59.53;101375.25;5033128;28;20477;-46
2022/05/13 09:34:17;;;;;;;13.53;8.10;;;;;;;18.05;60.83;101386.56;5033659;28;20423;-48
2022/05/13 09:36:49;;;;;;;14.70;8.90;;;;;;;18.18;60.76;101379.13;5032911;28;20475;-49
2022/05/13 09:39:21;;;;;;;10.30;9.20;;;;;;;17.95;59.29;101384.41;5033375;28;20430;-48
2022/05/13 09:41:52;;;;;;;10.47;8.17;;;;;;;17.74;60.50;101376.03;5033461;28;20440;-49
2022/05/13 09:44:26;;;;;;;8.30;7.50;;;;;;;17.57;61.94;101383.91;5033329;28;20527;-50
2022/05/13 09:47:11;;;;;;;8.33;7.63;;;;;;;17.62;61.15;101386.78;5032624;28;21010;-52
2022/05/13 09:50:01;;;;;;;9.13;7.37;;;;;;;17.82;59.54;101390.03;5027858;28;20527;-47
2022/05/13 09:52:34;;;;;;;9.33;8.00;;;;;;;17.98;60.53;101389.34;5032746;28;20939;-49
2022/05/13 09:55:14;;;;;;;9.00;8.10;;;;;;;18.02;60.67;101378.94;5033101;28;20503;-49
2022/05/13 09:57:43;;;;;;;9.80;7.43;;;;;;;18.33;60.57;101399.44;5032407;28;20564;-51
2022/05/13 10:00:16;;;;;;;7.40;6.77;;;;;;;18.57;59.40;101395.78;5032843;28;20438;-49
2022/05/13 10:02:46;;;;;;;7.50;7.10;;;;;;;18.78;59.95;101387.09;5032860;28;20442;-52
2022/05/13 10:05:17;;;;;;;9.13;7.20;;;;;;;19.11;57.81;101389.19;5033293;28;20815;-47
2022/05/13 10:08:00;;;;;;;8.43;7.60;;;;;;;18.72;55.15;101394.25;5032158;28;20496;-45
2022/05/13 10:16:08;;;;;;;11.10;7.40;;;;;;;18.65;57.53;101408.91;5031981;28;20460;-45
2022/05/13 10:18:42;;;;;;;12.47;7.30;;;;;;;18.70;57.56;101400.94;5032394;28;20431;-50
2022/05/13 10:21:16;;;;;;;7.80;7.00;;;;;;;18.19;58.03;101394.25;5032195;28;20897;-51
2022/05/13 10:23:55;;;;;;;9.70;8.77;;;;;;;17.90;58.69;101418.53;5032634;28;20432;-48
2022/05/13 10:26:27;;;;;;;9.30;7.33;;;;;;;18.02;58.90;101409.44;5031989;28;20463;-50
2022/05/13 10:29:00;;;;;;;8.63;7.43;;;;;;;18.15;59.35;101417.38;5032533;28;20448;-46
2022/05/13 10:31:30;;;;;;;11.47;8.30;;;;;;;18.47;59.78;101422.47;5032073;28;20446;-51
2022/05/13 10:34:04;;;;;;;10.43;8.53;;;;;;;18.70;59.99;101414.44;5032442;28;20426;-51
2022/05/13 10:36:39;;;;;;;8.47;7.77;;;;;;;18.71;57.55;101416.09;5031873;28;20464;-48
2022/05/13 10:39:14;;;;;;;9.40;7.70;;;;;;;18.63;57.89;101416.44;5032060;28;20433;-46
2022/05/13 10:41:46;;;;;;;9.60;8.00;;;;;;;18.30;58.69;101414.25;5032014;28;20440;-48
2022/05/13 10:44:21;;;;;;;9.60;8.30;;;;;;;18.25;59.90;101420.31;5031990;28;20430;-51
2022/05/13 10:46:53;;;;;;;8.70;7.80;;;;;;;18.14;59.07;101426.50;5031864;28;20461;-49
2022/05/13 10:49:39;;;;;;;10.17;8.73;;;;;;;17.83;61.14;101417.81;5024604;28;20416;-46
2022/05/13 10:52:18;;;;;;;12.77;9.33;;;;;;;17.65;62.06;101427.56;5031751;28;20485;-43
2022/05/13 10:54:53;;;;;;;16.83;9.13;;;;;;;17.60;60.07;101423.91;5031850;28;20431;-47
2022/05/13 10:57:32;;;;;;;9.60;8.00;;;;;;;17.38;61.46;101428.91;5031530;28;20474;-47
2022/05/13 11:00:12;;;;;;;10.43;7.90;;;;;;;17.19;61.88;101429.13;5031982;28;20424;-46
2022/05/13 11:03:12;;;;;;;12.33;8.60;;;;;;;17.23;61.16;101435.72;5031642;28;20439;-43
2022/05/13 11:05:48;;;;;;;8.27;6.90;;;;;;;17.65;61.11;101427.56;5002174;28;21099;-46
2022/05/13 11:08:22;;;;;;;8.40;7.00;;;;;;;17.88;58.77;101429.59;5031670;28;20444;-43
2022/05/13 11:11:04;;;;;;;8.50;6.77;;;;;;;17.82;58.96;101430.50;5031547;28;20809;-47
2022/05/13 11:13:43;;;;;;;6.33;5.73;;;;;;;18.18;58.69;101430.41;5031880;28;20423;-45
2022/05/13 11:16:23;;;;;;;6.53;5.87;;;;;;;18.64;57.74;101434.28;5031116;28;20477;-45
2022/05/13 11:19:02;;;;;;;6.60;5.97;;;;;;;18.75;56.47;101437.03;5031784;28;20432;-48
2022/05/13 11:21:37;;;;;;;8.40;5.33;;;;;;;18.44;55.55;101437.28;5031447;28;20933;-48
2022/05/13 11:27:14;;;;;;;6.33;5.40;;;;;;;18.43;56.63;101442.94;5031114;28;20467;-44
2022/05/13 11:29:47;;;;;;;6.67;5.90;;;;;;;18.66;55.31;101434.91;5031566;28;20431;-46
2022/05/13 11:32:26;;;;;;;11.47;5.83;;;;;;;18.61;54.72;101445.56;5029918;28;20443;-48
2022/05/13 11:35:09;;;;;;;11.20;6.00;;;;;;;18.32;55.95;101444.53;5031649;28;20434;-46
2022/05/13 11:37:41;;;;;;;9.83;6.17;;;;;;;18.56;56.02;101448.13;5030962;28;20466;-44
2022/05/13 11:40:18;;;;;;;9.20;5.40;;;;;;;18.88;55.58;101444.06;5031177;28;20438;-45
2022/05/13 11:43:21;;;;;;;7.73;5.10;;;;;;;18.84;53.88;101447.47;5031230;28;20423;-45
2022/05/13 11:46:26;;;;;;;7.10;5.13;;;;;;;18.75;54.66;101458.66;5028016;28;20471;-47
2022/05/13 11:48:57;;;;;;;7.90;5.30;;;;;;;18.84;53.39;101453.72;5025520;28;20446;-47
2022/05/13 11:51:28;;;;;;;7.83;4.63;;;;;;;18.86;53.85;101453.47;5030728;28;20435;-48
2022/05/13 11:54:16;;;;;;;12.00;5.40;;;;;;;18.83;53.21;101449.34;5029757;28;20957;-47
2022/05/13 11:56:46;;;;;;;10.10;5.50;;;;;;;18.41;55.45;101456.66;5029372;28;20468;-49